sensor_id;sensor_type;location;lat;lon;timestamp;temperature;humidity
423;DHT22;198;48.752;9.180;2023-02-26T00:02:18;2.80;99.90
423;DHT22;198;48.752;9.180;2023-02-26T00:04:43;2.80;99.90
423;DHT22;198;48.752;9.180;2023-02-26T00:07:09;2.80;99.90
423;DHT22;198;48.752;9.180;2023-02-26T00:09:34;2.70;99.90
423;DHT22;198;48.752;9.180;2023-02-26T00:12:00;2.70;99.90
423;DHT22;198;48.752;9.180;2023-02-26T00:14:26;2.70;99.70
423;DHT22;198;48.752;9.180;2023-02-26T00:19:38;2.60;99.90
423;DHT22;198;48.752;9.180;2023-02-26T00:22:03;2.50;99.90
423;DHT22;198;48.752;9.180;2023-02-26T00:24:29;2.50;99.90
423;DHT22;198;48.752;9.180;2023-02-26T00:26:55;2.50;99.90
423;DHT22;198;48.752;9.180;2023-02-26T00:29:20;2.40;99.90
423;DHT22;198;48.752;9.180;2023-02-26T00:31:46;2.40;99.70
423;DHT22;198;48.752;9.180;2023-02-26T00:34:12;2.40;98.90
423;DHT22;198;48.752;9.180;2023-02-26T00:36:40;2.30;99.30
423;DHT22;198;48.752;9.180;2023-02-26T00:39:25;2.30;99.50
423;DHT22;198;48.752;9.180;2023-02-26T00:41:57;2.20;99.60
423;DHT22;198;48.752;9.180;2023-02-26T00:44:23;2.20;99.90
423;DHT22;198;48.752;9.180;2023-02-26T00:46:56;2.10;99.90
423;DHT22;198;48.752;9.180;2023-02-26T00:52:23;2.00;99.90
423;DHT22;198;48.752;9.180;2023-02-26T00:54:50;1.90;99.90
423;DHT22;198;48.752;9.180;2023-02-26T00:57:16;1.90;99.90
423;DHT22;198;48.752;9.180;2023-02-26T00:59:41;1.80;99.90
423;DHT22;198;48.752;9.180;2023-02-26T01:02:07;1.70;99.90
423;DHT22;198;48.752;9.180;2023-02-26T01:04:32;1.80;99.90
423;DHT22;198;48.752;9.180;2023-02-26T01:06:58;1.70;99.90
423;DHT22;198;48.752;9.180;2023-02-26T01:11:58;1.70;99.90
423;DHT22;198;48.752;9.180;2023-02-26T01:14:26;1.70;99.90
423;DHT22;198;48.752;9.180;2023-02-26T01:17:01;1.70;99.90
423;DHT22;198;48.752;9.180;2023-02-26T01:19:38;1.70;99.90
423;DHT22;198;48.752;9.180;2023-02-26T01:22:12;1.80;99.90
423;DHT22;198;48.752;9.180;2023-02-26T01:24:40;1.80;99.90
423;DHT22;198;48.752;9.180;2023-02-26T01:27:06;1.80;99.90
423;DHT22;198;48.752;9.180;2023-02-26T01:29:32;1.80;99.90
423;DHT22;198;48.752;9.180;2023-02-26T01:32:23;1.80;99.90
423;DHT22;198;48.752;9.180;2023-02-26T01:35:39;1.80;99.90
423;DHT22;198;48.752;9.180;2023-02-26T01:38:01;1.80;99.90
423;DHT22;198;48.752;9.180;2023-02-26T01:43:18;1.70;99.90
423;DHT22;198;48.752;9.180;2023-02-26T01:45:57;1.60;99.90
423;DHT22;198;48.752;9.180;2023-02-26T01:48:47;1.50;99.90
423;DHT22;198;48.752;9.180;2023-02-26T01:51:15;1.40;99.90
423;DHT22;198;48.752;9.180;2023-02-26T01:53:40;1.30;99.90
423;DHT22;198;48.752;9.180;2023-02-26T01:56:16;1.20;99.90
423;DHT22;198;48.752;9.180;2023-02-26T01:58:43;1.20;99.90
423;DHT22;198;48.752;9.180;2023-02-26T02:01:10;1.20;99.90
423;DHT22;198;48.752;9.180;2023-02-26T02:03:37;1.10;99.90
423;DHT22;198;48.752;9.180;2023-02-26T02:06:09;1.10;99.90
423;DHT22;198;48.752;9.180;2023-02-26T02:08:37;1.10;99.90
423;DHT22;198;48.752;9.180;2023-02-26T02:11:06;1.10;99.90
423;DHT22;198;48.752;9.180;2023-02-26T02:14:07;1.00;99.90
423;DHT22;198;48.752;9.180;2023-02-26T02:19:54;0.90;99.90
423;DHT22;198;48.752;9.180;2023-02-26T02:25:20;0.80;99.90
423;DHT22;198;48.752;9.180;2023-02-26T02:28:05;0.80;99.90
423;DHT22;198;48.752;9.180;2023-02-26T02:34:05;0.60;99.90
423;DHT22;198;48.752;9.180;2023-02-26T02:36:44;0.70;99.90
423;DHT22;198;48.752;9.180;2023-02-26T02:39:27;0.60;99.90
423;DHT22;198;48.752;9.180;2023-02-26T02:42:05;0.60;99.90
423;DHT22;198;48.752;9.180;2023-02-26T02:44:35;0.50;99.90
423;DHT22;198;48.752;9.180;2023-02-26T02:47:04;0.50;99.90
423;DHT22;198;48.752;9.180;2023-02-26T02:49:36;0.50;99.90
423;DHT22;198;48.752;9.180;2023-02-26T02:52:09;0.50;99.90
423;DHT22;198;48.752;9.180;2023-02-26T02:54:45;0.50;99.90
423;DHT22;198;48.752;9.180;2023-02-26T02:57:18;0.50;99.90
423;DHT22;198;48.752;9.180;2023-02-26T02:59:48;0.40;99.90
423;DHT22;198;48.752;9.180;2023-02-26T03:04:47;0.40;99.90
423;DHT22;198;48.752;9.180;2023-02-26T03:07:13;0.40;99.90
423;DHT22;198;48.752;9.180;2023-02-26T03:09:39;0.40;99.90
423;DHT22;198;48.752;9.180;2023-02-26T03:12:04;0.40;99.90
423;DHT22;198;48.752;9.180;2023-02-26T03:14:30;0.30;99.90
423;DHT22;198;48.752;9.180;2023-02-26T03:17:02;0.30;99.90
423;DHT22;198;48.752;9.180;2023-02-26T03:19:43;0.30;99.90
423;DHT22;198;48.752;9.180;2023-02-26T03:22:49;0.30;99.90
423;DHT22;198;48.752;9.180;2023-02-26T03:25:08;0.30;99.90
423;DHT22;198;48.752;9.180;2023-02-26T03:27:57;0.20;99.90
423;DHT22;198;48.752;9.180;2023-02-26T03:30:37;0.20;99.90
423;DHT22;198;48.752;9.180;2023-02-26T03:35:50;0.10;99.90
423;DHT22;198;48.752;9.180;2023-02-26T03:41:34;0.30;99.90
423;DHT22;198;48.752;9.180;2023-02-26T03:44:17;0.50;99.90
423;DHT22;198;48.752;9.180;2023-02-26T03:46:53;0.50;99.90
423;DHT22;198;48.752;9.180;2023-02-26T03:49:35;0.60;99.90
423;DHT22;198;48.752;9.180;2023-02-26T03:52:03;0.60;99.90
423;DHT22;198;48.752;9.180;2023-02-26T03:54:36;0.50;99.90
423;DHT22;198;48.752;9.180;2023-02-26T03:57:03;0.50;99.90
423;DHT22;198;48.752;9.180;2023-02-26T03:59:28;0.40;99.90
423;DHT22;198;48.752;9.180;2023-02-26T04:02:04;0.40;99.90
423;DHT22;198;48.752;9.180;2023-02-26T04:04:38;0.40;99.90
423;DHT22;198;48.752;9.180;2023-02-26T04:07:10;0.30;99.90
423;DHT22;198;48.752;9.180;2023-02-26T04:09:39;0.20;99.90
423;DHT22;198;48.752;9.180;2023-02-26T04:12:05;0.20;99.90
423;DHT22;198;48.752;9.180;2023-02-26T04:14:31;0.20;99.90
423;DHT22;198;48.752;9.180;2023-02-26T04:16:56;0.20;99.90
423;DHT22;198;48.752;9.180;2023-02-26T04:19:22;0.10;99.90
423;DHT22;198;48.752;9.180;2023-02-26T04:21:47;0.10;99.90
423;DHT22;198;48.752;9.180;2023-02-26T04:24:13;0.00;99.90
423;DHT22;198;48.752;9.180;2023-02-26T04:26:38;0.00;99.90
423;DHT22;198;48.752;9.180;2023-02-26T04:29:04;-0.10;99.90
423;DHT22;198;48.752;9.180;2023-02-26T04:31:29;-0.10;99.90
423;DHT22;198;48.752;9.180;2023-02-26T04:33:55;-0.10;99.90
423;DHT22;198;48.752;9.180;2023-02-26T04:36:20;-0.10;99.90
423;DHT22;198;48.752;9.180;2023-02-26T04:38:46;-0.10;99.90
423;DHT22;198;48.752;9.180;2023-02-26T04:41:11;-0.20;99.90
423;DHT22;198;48.752;9.180;2023-02-26T04:43:37;-0.20;99.90
423;DHT22;198;48.752;9.180;2023-02-26T04:46:02;-0.20;99.90
423;DHT22;198;48.752;9.180;2023-02-26T04:48:28;-0.20;99.90
423;DHT22;198;48.752;9.180;2023-02-26T04:50:53;-0.20;99.90
423;DHT22;198;48.752;9.180;2023-02-26T04:53:19;-0.20;99.90
423;DHT22;198;48.752;9.180;2023-02-26T04:55:47;-0.30;99.90
423;DHT22;198;48.752;9.180;2023-02-26T04:58:13;-0.20;99.90
423;DHT22;198;48.752;9.180;2023-02-26T05:00:38;-0.30;99.90
423;DHT22;198;48.752;9.180;2023-02-26T05:03:04;-0.20;99.90
423;DHT22;198;48.752;9.180;2023-02-26T05:05:30;-0.20;99.90
423;DHT22;198;48.752;9.180;2023-02-26T05:07:56;-0.20;99.90
423;DHT22;198;48.752;9.180;2023-02-26T05:10:22;-0.10;99.90
423;DHT22;198;48.752;9.180;2023-02-26T05:12:48;-0.10;99.90
423;DHT22;198;48.752;9.180;2023-02-26T05:15:13;-0.10;99.90
423;DHT22;198;48.752;9.180;2023-02-26T05:17:38;-0.10;99.90
423;DHT22;198;48.752;9.180;2023-02-26T05:20:05;-0.10;99.90
423;DHT22;198;48.752;9.180;2023-02-26T05:22:31;-0.10;99.90
423;DHT22;198;48.752;9.180;2023-02-26T05:24:56;-0.10;99.90
423;DHT22;198;48.752;9.180;2023-02-26T05:27:22;-0.20;99.90
423;DHT22;198;48.752;9.180;2023-02-26T05:29:47;-0.30;99.90
423;DHT22;198;48.752;9.180;2023-02-26T05:32:13;-0.30;99.90
423;DHT22;198;48.752;9.180;2023-02-26T05:34:38;-0.40;99.90
423;DHT22;198;48.752;9.180;2023-02-26T05:37:04;-0.40;99.90
423;DHT22;198;48.752;9.180;2023-02-26T05:39:30;-0.40;99.90
423;DHT22;198;48.752;9.180;2023-02-26T05:41:55;-0.40;99.90
423;DHT22;198;48.752;9.180;2023-02-26T05:44:22;-0.50;99.90
423;DHT22;198;48.752;9.180;2023-02-26T05:46:47;-0.50;99.90
423;DHT22;198;48.752;9.180;2023-02-26T05:49:13;-0.50;99.90
423;DHT22;198;48.752;9.180;2023-02-26T05:51:38;-0.50;99.90
423;DHT22;198;48.752;9.180;2023-02-26T05:54:04;-0.50;99.90
423;DHT22;198;48.752;9.180;2023-02-26T05:56:30;-0.50;99.90
423;DHT22;198;48.752;9.180;2023-02-26T05:58:56;-0.50;99.90
423;DHT22;198;48.752;9.180;2023-02-26T06:01:22;-0.50;99.90
423;DHT22;198;48.752;9.180;2023-02-26T06:03:47;-0.50;99.90
423;DHT22;198;48.752;9.180;2023-02-26T06:06:13;-0.60;99.90
423;DHT22;198;48.752;9.180;2023-02-26T06:08:42;-0.60;99.90
423;DHT22;198;48.752;9.180;2023-02-26T06:11:07;-0.60;99.90
423;DHT22;198;48.752;9.180;2023-02-26T06:13:33;-0.60;99.90
423;DHT22;198;48.752;9.180;2023-02-26T06:15:58;-0.60;99.90
423;DHT22;198;48.752;9.180;2023-02-26T06:18:24;-0.60;99.90
423;DHT22;198;48.752;9.180;2023-02-26T06:20:50;-0.60;99.90
423;DHT22;198;48.752;9.180;2023-02-26T06:23:15;-0.60;99.90
423;DHT22;198;48.752;9.180;2023-02-26T06:25:41;-0.50;99.90
423;DHT22;198;48.752;9.180;2023-02-26T06:28:07;-0.50;99.90
423;DHT22;198;48.752;9.180;2023-02-26T06:30:33;-0.50;99.90
423;DHT22;198;48.752;9.180;2023-02-26T06:32:59;-0.60;99.90
423;DHT22;198;48.752;9.180;2023-02-26T06:35:25;-0.60;99.90
423;DHT22;198;48.752;9.180;2023-02-26T06:37:50;-0.60;99.90
423;DHT22;198;48.752;9.180;2023-02-26T06:40:16;-0.50;99.90
423;DHT22;198;48.752;9.180;2023-02-26T06:42:41;-0.50;99.90
423;DHT22;198;48.752;9.180;2023-02-26T06:45:07;-0.40;99.90
423;DHT22;198;48.752;9.180;2023-02-26T06:47:33;-0.30;99.90
423;DHT22;198;48.752;9.180;2023-02-26T06:49:58;-0.20;99.90
423;DHT22;198;48.752;9.180;2023-02-26T06:52:24;-0.10;99.90
423;DHT22;198;48.752;9.180;2023-02-26T06:54:49;0.00;99.90
423;DHT22;198;48.752;9.180;2023-02-26T06:57:15;0.10;99.90
423;DHT22;198;48.752;9.180;2023-02-26T06:59:40;0.10;99.90
423;DHT22;198;48.752;9.180;2023-02-26T07:02:06;0.10;99.90
423;DHT22;198;48.752;9.180;2023-02-26T07:04:31;0.20;99.90
423;DHT22;198;48.752;9.180;2023-02-26T07:06:57;0.30;99.90
423;DHT22;198;48.752;9.180;2023-02-26T07:09:23;0.40;99.90
423;DHT22;198;48.752;9.180;2023-02-26T07:11:48;0.50;99.90
423;DHT22;198;48.752;9.180;2023-02-26T07:14:14;0.50;99.90
423;DHT22;198;48.752;9.180;2023-02-26T07:16:39;0.60;99.90
423;DHT22;198;48.752;9.180;2023-02-26T07:19:05;0.60;99.90
423;DHT22;198;48.752;9.180;2023-02-26T07:21:30;0.70;99.90
423;DHT22;198;48.752;9.180;2023-02-26T07:23:56;0.80;99.90
423;DHT22;198;48.752;9.180;2023-02-26T07:26:21;0.80;99.90
423;DHT22;198;48.752;9.180;2023-02-26T07:28:47;0.90;99.90
423;DHT22;198;48.752;9.180;2023-02-26T07:31:12;1.00;99.90
423;DHT22;198;48.752;9.180;2023-02-26T07:33:38;1.10;99.90
423;DHT22;198;48.752;9.180;2023-02-26T07:36:04;1.30;99.90
423;DHT22;198;48.752;9.180;2023-02-26T07:38:30;1.50;99.90
423;DHT22;198;48.752;9.180;2023-02-26T07:40:55;1.70;99.90
423;DHT22;198;48.752;9.180;2023-02-26T07:43:22;1.90;99.90
423;DHT22;198;48.752;9.180;2023-02-26T07:45:51;2.10;99.90
423;DHT22;198;48.752;9.180;2023-02-26T07:48:17;2.20;99.90
423;DHT22;198;48.752;9.180;2023-02-26T07:50:43;2.30;99.90
423;DHT22;198;48.752;9.180;2023-02-26T07:53:09;2.40;99.90
423;DHT22;198;48.752;9.180;2023-02-26T07:55:34;2.30;99.90
423;DHT22;198;48.752;9.180;2023-02-26T07:58:00;2.30;99.90
423;DHT22;198;48.752;9.180;2023-02-26T08:00:25;2.30;99.90
423;DHT22;198;48.752;9.180;2023-02-26T08:02:51;2.30;99.90
423;DHT22;198;48.752;9.180;2023-02-26T08:05:16;2.40;99.90
423;DHT22;198;48.752;9.180;2023-02-26T08:07:42;2.50;99.90
423;DHT22;198;48.752;9.180;2023-02-26T08:10:08;2.50;99.90
423;DHT22;198;48.752;9.180;2023-02-26T08:12:34;2.70;99.90
423;DHT22;198;48.752;9.180;2023-02-26T08:15:00;2.70;99.90
423;DHT22;198;48.752;9.180;2023-02-26T08:17:26;2.80;99.90
423;DHT22;198;48.752;9.180;2023-02-26T08:19:52;3.10;99.90
423;DHT22;198;48.752;9.180;2023-02-26T08:22:18;3.30;99.90
423;DHT22;198;48.752;9.180;2023-02-26T08:24:43;3.40;99.90
423;DHT22;198;48.752;9.180;2023-02-26T08:27:09;3.70;99.90
423;DHT22;198;48.752;9.180;2023-02-26T08:29:34;3.60;99.90
423;DHT22;198;48.752;9.180;2023-02-26T08:32:00;3.70;99.60
423;DHT22;198;48.752;9.180;2023-02-26T08:34:25;3.80;97.80
423;DHT22;198;48.752;9.180;2023-02-26T08:36:51;3.90;98.40
423;DHT22;198;48.752;9.180;2023-02-26T08:39:16;4.00;96.60
423;DHT22;198;48.752;9.180;2023-02-26T08:41:42;3.90;96.80
423;DHT22;198;48.752;9.180;2023-02-26T08:44:07;3.90;96.70
423;DHT22;198;48.752;9.180;2023-02-26T08:46:33;4.00;95.20
423;DHT22;198;48.752;9.180;2023-02-26T08:48:58;4.10;95.50
423;DHT22;198;48.752;9.180;2023-02-26T08:51:24;4.10;96.00
423;DHT22;198;48.752;9.180;2023-02-26T08:53:50;4.00;95.50
423;DHT22;198;48.752;9.180;2023-02-26T08:56:16;3.70;95.50
423;DHT22;198;48.752;9.180;2023-02-26T08:58:41;3.60;95.20
423;DHT22;198;48.752;9.180;2023-02-26T09:01:07;3.40;95.30
423;DHT22;198;48.752;9.180;2023-02-26T09:03:33;3.20;95.30
423;DHT22;198;48.752;9.180;2023-02-26T09:05:58;3.00;95.80
423;DHT22;198;48.752;9.180;2023-02-26T09:08:24;2.90;96.00
423;DHT22;198;48.752;9.180;2023-02-26T09:10:49;2.70;97.00
423;DHT22;198;48.752;9.180;2023-02-26T09:13:15;2.70;98.00
423;DHT22;198;48.752;9.180;2023-02-26T09:15:41;2.70;97.70
423;DHT22;198;48.752;9.180;2023-02-26T09:18:07;2.60;97.60
423;DHT22;198;48.752;9.180;2023-02-26T09:20:42;2.70;98.20
423;DHT22;198;48.752;9.180;2023-02-26T09:23:08;2.70;97.70
423;DHT22;198;48.752;9.180;2023-02-26T09:25:34;2.70;97.40
423;DHT22;198;48.752;9.180;2023-02-26T09:27:59;2.70;98.30
423;DHT22;198;48.752;9.180;2023-02-26T09:30:25;2.70;98.90
423;DHT22;198;48.752;9.180;2023-02-26T09:32:50;2.80;98.20
423;DHT22;198;48.752;9.180;2023-02-26T09:35:16;2.80;97.50
423;DHT22;198;48.752;9.180;2023-02-26T09:37:41;2.80;97.10
423;DHT22;198;48.752;9.180;2023-02-26T09:40:09;2.70;97.60
423;DHT22;198;48.752;9.180;2023-02-26T09:45:40;2.70;97.80
423;DHT22;198;48.752;9.180;2023-02-26T09:48:06;2.60;97.70
423;DHT22;198;48.752;9.180;2023-02-26T09:50:52;2.60;98.10
423;DHT22;198;48.752;9.180;2023-02-26T09:53:28;2.60;97.40
423;DHT22;198;48.752;9.180;2023-02-26T09:56:16;2.60;97.60
423;DHT22;198;48.752;9.180;2023-02-26T09:58:43;2.60;98.10
423;DHT22;198;48.752;9.180;2023-02-26T10:01:39;2.60;98.60
423;DHT22;198;48.752;9.180;2023-02-26T10:04:47;2.70;98.80
423;DHT22;198;48.752;9.180;2023-02-26T10:07:42;2.80;98.50
423;DHT22;198;48.752;9.180;2023-02-26T10:12:46;2.90;98.60
423;DHT22;198;48.752;9.180;2023-02-26T10:15:23;3.00;97.90
423;DHT22;198;48.752;9.180;2023-02-26T10:18:05;3.00;97.60
423;DHT22;198;48.752;9.180;2023-02-26T10:20:43;2.90;97.60
423;DHT22;198;48.752;9.180;2023-02-26T10:23:38;2.80;98.00
423;DHT22;198;48.752;9.180;2023-02-26T10:31:47;2.60;98.20
423;DHT22;198;48.752;9.180;2023-02-26T10:34:29;2.60;98.70
423;DHT22;198;48.752;9.180;2023-02-26T10:37:14;2.60;98.90
423;DHT22;198;48.752;9.180;2023-02-26T10:39:54;2.70;99.20
423;DHT22;198;48.752;9.180;2023-02-26T10:42:32;2.70;98.80
423;DHT22;198;48.752;9.180;2023-02-26T10:48:11;2.50;98.60
423;DHT22;198;48.752;9.180;2023-02-26T10:50:44;2.40;98.90
423;DHT22;198;48.752;9.180;2023-02-26T10:53:12;2.40;99.30
423;DHT22;198;48.752;9.180;2023-02-26T10:55:45;2.50;99.20
423;DHT22;198;48.752;9.180;2023-02-26T10:58:17;2.60;99.40
423;DHT22;198;48.752;9.180;2023-02-26T11:00:48;2.80;99.10
423;DHT22;198;48.752;9.180;2023-02-26T11:03:18;3.10;98.70
423;DHT22;198;48.752;9.180;2023-02-26T11:05:44;3.30;97.80
423;DHT22;198;48.752;9.180;2023-02-26T11:08:25;3.30;96.90
423;DHT22;198;48.752;9.180;2023-02-26T11:10:53;3.50;97.00
423;DHT22;198;48.752;9.180;2023-02-26T11:13:24;3.60;96.40
423;DHT22;198;48.752;9.180;2023-02-26T11:15:54;3.60;96.20
423;DHT22;198;48.752;9.180;2023-02-26T11:18:44;3.60;95.90
423;DHT22;198;48.752;9.180;2023-02-26T11:21:25;3.70;95.90
423;DHT22;198;48.752;9.180;2023-02-26T11:24:00;3.90;95.40
423;DHT22;198;48.752;9.180;2023-02-26T11:26:29;4.20;94.80
423;DHT22;198;48.752;9.180;2023-02-26T11:28:57;4.40;94.00
423;DHT22;198;48.752;9.180;2023-02-26T11:31:23;4.60;93.40
423;DHT22;198;48.752;9.180;2023-02-26T11:33:51;4.60;92.80
423;DHT22;198;48.752;9.180;2023-02-26T11:36:23;4.50;91.70
423;DHT22;198;48.752;9.180;2023-02-26T11:38:57;4.30;91.70
423;DHT22;198;48.752;9.180;2023-02-26T11:41:25;4.10;92.00
423;DHT22;198;48.752;9.180;2023-02-26T11:44:06;4.00;92.10
423;DHT22;198;48.752;9.180;2023-02-26T11:46:38;3.90;92.20
423;DHT22;198;48.752;9.180;2023-02-26T11:49:05;3.70;92.00
423;DHT22;198;48.752;9.180;2023-02-26T11:51:30;3.70;92.30
423;DHT22;198;48.752;9.180;2023-02-26T11:53:58;3.70;92.10
423;DHT22;198;48.752;9.180;2023-02-26T11:56:42;3.70;91.70
423;DHT22;198;48.752;9.180;2023-02-26T11:59:20;3.60;92.50
423;DHT22;198;48.752;9.180;2023-02-26T12:01:47;3.60;92.90
423;DHT22;198;48.752;9.180;2023-02-26T12:04:17;3.60;93.10
423;DHT22;198;48.752;9.180;2023-02-26T12:06:45;3.60;93.00
423;DHT22;198;48.752;9.180;2023-02-26T12:09:12;3.60;93.00
423;DHT22;198;48.752;9.180;2023-02-26T12:11:59;3.50;93.40
423;DHT22;198;48.752;9.180;2023-02-26T12:14:50;3.40;94.10
423;DHT22;198;48.752;9.180;2023-02-26T12:20:05;3.50;95.00
423;DHT22;198;48.752;9.180;2023-02-26T12:25:43;3.70;94.50
423;DHT22;198;48.752;9.180;2023-02-26T12:28:35;3.80;94.60
423;DHT22;198;48.752;9.180;2023-02-26T12:34:01;3.60;93.50
423;DHT22;198;48.752;9.180;2023-02-26T12:36:49;3.50;93.70
423;DHT22;198;48.752;9.180;2023-02-26T12:45:13;3.10;95.90
423;DHT22;198;48.752;9.180;2023-02-26T12:48:03;3.10;96.30
423;DHT22;198;48.752;9.180;2023-02-26T12:51:01;3.40;96.50
423;DHT22;198;48.752;9.180;2023-02-26T12:53:43;3.70;95.90
423;DHT22;198;48.752;9.180;2023-02-26T12:56:43;4.00;95.30
423;DHT22;198;48.752;9.180;2023-02-26T13:02:49;4.90;92.70
423;DHT22;198;48.752;9.180;2023-02-26T13:05:53;5.10;91.50
423;DHT22;198;48.752;9.180;2023-02-26T13:08:25;5.10;89.90
423;DHT22;198;48.752;9.180;2023-02-26T13:11:11;5.00;89.20
423;DHT22;198;48.752;9.180;2023-02-26T13:17:17;4.90;89.70
423;DHT22;198;48.752;9.180;2023-02-26T13:19:54;4.70;89.30
423;DHT22;198;48.752;9.180;2023-02-26T13:22:40;4.60;89.00
423;DHT22;198;48.752;9.180;2023-02-26T13:25:20;4.50;88.30
423;DHT22;198;48.752;9.180;2023-02-26T13:27:48;4.50;88.80
423;DHT22;198;48.752;9.180;2023-02-26T13:30:22;4.40;87.90
423;DHT22;198;48.752;9.180;2023-02-26T13:32:58;4.30;86.80
423;DHT22;198;48.752;9.180;2023-02-26T13:37:55;4.10;87.90
423;DHT22;198;48.752;9.180;2023-02-26T13:46:18;4.30;86.30
423;DHT22;198;48.752;9.180;2023-02-26T13:49:08;4.30;84.90
423;DHT22;198;48.752;9.180;2023-02-26T13:51:38;4.20;83.10
423;DHT22;198;48.752;9.180;2023-02-26T13:54:08;4.40;84.50
423;DHT22;198;48.752;9.180;2023-02-26T13:57:07;4.50;82.60
423;DHT22;198;48.752;9.180;2023-02-26T13:59:51;5.00;83.10
423;DHT22;198;48.752;9.180;2023-02-26T14:04:51;5.90;78.00
423;DHT22;198;48.752;9.180;2023-02-26T14:07:44;6.30;75.60
423;DHT22;198;48.752;9.180;2023-02-26T14:10:17;6.70;73.00
423;DHT22;198;48.752;9.180;2023-02-26T14:15:52;6.40;68.20
423;DHT22;198;48.752;9.180;2023-02-26T14:18:30;6.10;67.60
423;DHT22;198;48.752;9.180;2023-02-26T14:24:12;5.90;68.70
423;DHT22;198;48.752;9.180;2023-02-26T14:26:44;5.70;70.10
423;DHT22;198;48.752;9.180;2023-02-26T14:29:19;5.70;70.40
423;DHT22;198;48.752;9.180;2023-02-26T14:31:52;5.80;71.10
423;DHT22;198;48.752;9.180;2023-02-26T14:34:24;5.90;70.90
423;DHT22;198;48.752;9.180;2023-02-26T14:36:53;6.00;69.80
423;DHT22;198;48.752;9.180;2023-02-26T14:41:58;6.10;72.10
423;DHT22;198;48.752;9.180;2023-02-26T14:44:28;6.20;70.60
423;DHT22;198;48.752;9.180;2023-02-26T14:46:56;6.00;69.10
423;DHT22;198;48.752;9.180;2023-02-26T14:49:30;5.90;69.90
423;DHT22;198;48.752;9.180;2023-02-26T14:55:26;5.80;70.00
423;DHT22;198;48.752;9.180;2023-02-26T14:58:05;5.70;68.80
423;DHT22;198;48.752;9.180;2023-02-26T15:09:24;5.60;69.50
423;DHT22;198;48.752;9.180;2023-02-26T15:18:08;6.10;66.50
423;DHT22;198;48.752;9.180;2023-02-26T15:20:51;6.10;64.70
423;DHT22;198;48.752;9.180;2023-02-26T15:25:57;5.70;64.00
423;DHT22;198;48.752;9.180;2023-02-26T15:28:27;5.60;64.40
423;DHT22;198;48.752;9.180;2023-02-26T15:30:54;5.40;64.50
423;DHT22;198;48.752;9.180;2023-02-26T15:33:23;5.20;64.90
423;DHT22;198;48.752;9.180;2023-02-26T15:35:50;5.10;66.40
423;DHT22;198;48.752;9.180;2023-02-26T15:38:16;5.20;66.70
423;DHT22;198;48.752;9.180;2023-02-26T15:40:43;5.40;67.80
423;DHT22;198;48.752;9.180;2023-02-26T15:43:13;5.70;66.10
423;DHT22;198;48.752;9.180;2023-02-26T15:45:48;6.40;65.10
423;DHT22;198;48.752;9.180;2023-02-26T15:48:15;7.00;62.80
423;DHT22;198;48.752;9.180;2023-02-26T15:50:45;7.70;59.50
423;DHT22;198;48.752;9.180;2023-02-26T15:53:26;8.50;58.10
423;DHT22;198;48.752;9.180;2023-02-26T15:55:55;8.70;55.90
423;DHT22;198;48.752;9.180;2023-02-26T15:58:37;8.40;55.40
423;DHT22;198;48.752;9.180;2023-02-26T16:01:04;7.90;54.90
423;DHT22;198;48.752;9.180;2023-02-26T16:03:34;7.30;55.60
423;DHT22;198;48.752;9.180;2023-02-26T16:06:01;6.80;56.70
423;DHT22;198;48.752;9.180;2023-02-26T16:08:27;6.40;56.90
423;DHT22;198;48.752;9.180;2023-02-26T16:10:55;6.10;57.50
423;DHT22;198;48.752;9.180;2023-02-26T16:13:30;6.20;57.00
423;DHT22;198;48.752;9.180;2023-02-26T16:16:11;6.00;56.60
423;DHT22;198;48.752;9.180;2023-02-26T16:18:39;5.70;56.70
423;DHT22;198;48.752;9.180;2023-02-26T16:21:07;5.30;56.30
423;DHT22;198;48.752;9.180;2023-02-26T16:23:45;5.00;56.90
423;DHT22;198;48.752;9.180;2023-02-26T16:26:16;4.70;57.70
423;DHT22;198;48.752;9.180;2023-02-26T16:28:44;4.40;57.80
423;DHT22;198;48.752;9.180;2023-02-26T16:31:21;4.20;57.80
423;DHT22;198;48.752;9.180;2023-02-26T16:33:57;3.90;58.20
423;DHT22;198;48.752;9.180;2023-02-26T16:36:24;3.70;59.10
423;DHT22;198;48.752;9.180;2023-02-26T16:41:40;3.40;60.10
423;DHT22;198;48.752;9.180;2023-02-26T16:47:00;3.10;60.60
423;DHT22;198;48.752;9.180;2023-02-26T16:49:33;3.00;61.40
423;DHT22;198;48.752;9.180;2023-02-26T16:52:00;2.90;62.00
423;DHT22;198;48.752;9.180;2023-02-26T16:54:38;2.80;61.60
423;DHT22;198;48.752;9.180;2023-02-26T16:57:11;2.70;62.20
423;DHT22;198;48.752;9.180;2023-02-26T16:59:38;2.70;61.40
423;DHT22;198;48.752;9.180;2023-02-26T17:02:14;2.70;61.60
423;DHT22;198;48.752;9.180;2023-02-26T17:04:43;2.70;61.60
423;DHT22;198;48.752;9.180;2023-02-26T17:07:36;2.70;61.80
423;DHT22;198;48.752;9.180;2023-02-26T17:10:41;2.70;62.20
423;DHT22;198;48.752;9.180;2023-02-26T17:13:22;2.60;62.40
423;DHT22;198;48.752;9.180;2023-02-26T17:15:49;2.60;63.50
423;DHT22;198;48.752;9.180;2023-02-26T17:18:16;2.60;64.00
423;DHT22;198;48.752;9.180;2023-02-26T17:20:42;2.50;63.40
423;DHT22;198;48.752;9.180;2023-02-26T17:23:10;2.50;63.20
423;DHT22;198;48.752;9.180;2023-02-26T17:25:42;2.40;64.10
423;DHT22;198;48.752;9.180;2023-02-26T17:28:15;2.40;64.00
423;DHT22;198;48.752;9.180;2023-02-26T17:30:41;2.30;63.50
423;DHT22;198;48.752;9.180;2023-02-26T17:33:10;2.30;63.80
423;DHT22;198;48.752;9.180;2023-02-26T17:35:37;2.30;65.10
423;DHT22;198;48.752;9.180;2023-02-26T17:38:02;2.20;64.80
423;DHT22;198;48.752;9.180;2023-02-26T17:40:32;2.20;64.80
423;DHT22;198;48.752;9.180;2023-02-26T17:43:01;2.10;64.80
423;DHT22;198;48.752;9.180;2023-02-26T17:45:28;2.10;64.80
423;DHT22;198;48.752;9.180;2023-02-26T17:47:53;2.00;65.20
423;DHT22;198;48.752;9.180;2023-02-26T17:50:47;2.00;65.30
423;DHT22;198;48.752;9.180;2023-02-26T17:53:14;1.90;65.00
423;DHT22;198;48.752;9.180;2023-02-26T17:55:40;1.90;65.50
423;DHT22;198;48.752;9.180;2023-02-26T17:58:09;1.80;65.70
423;DHT22;198;48.752;9.180;2023-02-26T18:00:37;1.70;66.00
423;DHT22;198;48.752;9.180;2023-02-26T18:03:06;1.60;66.70
423;DHT22;198;48.752;9.180;2023-02-26T18:05:33;1.50;66.70
423;DHT22;198;48.752;9.180;2023-02-26T18:08:22;1.50;67.50
423;DHT22;198;48.752;9.180;2023-02-26T18:10:48;1.50;66.80
423;DHT22;198;48.752;9.180;2023-02-26T18:13:14;1.40;67.30
423;DHT22;198;48.752;9.180;2023-02-26T18:15:40;1.30;67.40
423;DHT22;198;48.752;9.180;2023-02-26T18:18:08;1.30;68.50
423;DHT22;198;48.752;9.180;2023-02-26T18:20:34;1.30;67.60
423;DHT22;198;48.752;9.180;2023-02-26T18:22:59;1.20;68.70
423;DHT22;198;48.752;9.180;2023-02-26T18:25:26;1.20;70.00
423;DHT22;198;48.752;9.180;2023-02-26T18:27:53;1.10;70.20
423;DHT22;198;48.752;9.180;2023-02-26T18:30:27;1.10;70.20
423;DHT22;198;48.752;9.180;2023-02-26T18:32:53;1.10;70.70
423;DHT22;198;48.752;9.180;2023-02-26T18:35:19;1.10;70.90
423;DHT22;198;48.752;9.180;2023-02-26T18:37:45;1.10;70.50
423;DHT22;198;48.752;9.180;2023-02-26T18:40:14;1.10;70.60
423;DHT22;198;48.752;9.180;2023-02-26T18:42:40;1.20;71.10
423;DHT22;198;48.752;9.180;2023-02-26T18:45:06;1.20;71.60
423;DHT22;198;48.752;9.180;2023-02-26T18:47:31;1.30;70.90
423;DHT22;198;48.752;9.180;2023-02-26T18:49:57;1.30;71.00
423;DHT22;198;48.752;9.180;2023-02-26T18:52:23;1.30;70.40
423;DHT22;198;48.752;9.180;2023-02-26T18:54:48;1.40;70.30
423;DHT22;198;48.752;9.180;2023-02-26T18:57:14;1.40;69.80
423;DHT22;198;48.752;9.180;2023-02-26T18:59:39;1.40;69.30
423;DHT22;198;48.752;9.180;2023-02-26T19:02:06;1.30;69.50
423;DHT22;198;48.752;9.180;2023-02-26T19:04:32;1.30;69.30